Time;durP1;ratioP1;P1;durP2;ratioP2;P2;SDS_P1;SDS_P2;PMS_P1;PMS_P2;Temp;Humidity;BMP_temperature;BMP_pressure;BME280_temperature;BME280_humidity;BME280_pressure;Samples;Min_cycle;Max_cycle;Signal;HPM_P1;HPM_P2
2023/03/23 00:13:39;;;;;;;27.87;17.00;;;;;;;9.66;63.34;99537.16;30607431;28;97651;-60
2023/03/23 00:28:39;;;;;;;26.10;16.02;;;;;;;9.41;63.54;99550.69;30615770;28;97369;-61
2023/03/23 00:43:40;;;;;;;24.55;16.77;;;;;;;9.29;63.90;99541.47;30625648;28;97043;-60
2023/03/23 00:58:40;;;;;;;26.20;15.52;;;;;;;9.04;64.30;99523.03;30624861;28;96630;-61
2023/03/23 01:13:44;;;;;;;18.88;11.70;;;;;;;9.12;64.71;99515.00;30623539;28;96905;-60
2023/03/23 01:28:45;;;;;;;20.47;12.83;;;;;;;9.11;64.65;99510.69;30621442;28;96664;-61
2023/03/23 01:44:03;;;;;;;22.83;12.63;;;;;;;9.15;64.94;99488.06;30619621;28;97467;-60
2023/03/23 01:59:04;;;;;;;16.33;8.83;;;;;;;9.38;64.95;99484.59;30619056;28;96961;-60
2023/03/23 02:14:05;;;;;;;14.80;9.00;;;;;;;9.52;64.56;99468.84;30617207;28;97094;-60
2023/03/23 02:29:21;;;;;;;13.63;8.17;;;;;;;9.58;64.74;99465.44;30616046;28;97261;-60
2023/03/23 02:44:24;;;;;;;16.03;8.37;;;;;;;9.66;64.43;99452.06;30614794;28;96875;-60
2023/03/23 02:59:25;;;;;;;16.77;8.07;;;;;;;9.62;64.56;99458.75;30612607;28;97265;-61
2023/03/23 03:14:31;;;;;;;12.95;7.30;;;;;;;9.73;64.61;99457.47;30612818;28;96722;-61
2023/03/23 03:29:35;;;;;;;10.50;5.97;;;;;;;9.87;64.55;99440.72;30610453;28;96559;-61
2023/03/23 03:44:35;;;;;;;9.13;5.93;;;;;;;9.93;64.28;99431.16;30609175;28;97379;-60
2023/03/23 03:59:36;;;;;;;11.35;5.75;;;;;;;9.94;64.01;99425.66;30611902;28;97527;-60
2023/03/23 04:14:36;;;;;;;15.02;6.80;;;;;;;9.87;63.98;99434.53;30627574;28;97186;-60
2023/03/23 04:29:36;;;;;;;6.60;4.60;;;;;;;10.07;63.62;99424.97;30625802;28;97089;-60
2023/03/23 04:44:37;;;;;;;7.28;4.22;;;;;;;10.28;63.15;99423.41;30623327;28;96836;-60
2023/03/23 04:59:39;;;;;;;5.73;4.17;;;;;;;10.51;62.94;99417.94;30623488;28;98573;-61
2023/03/23 05:14:42;;;;;;;7.82;4.82;;;;;;;10.66;62.03;99410.75;30618792;28;96687;-61
2023/03/23 05:29:43;;;;;;;8.17;4.00;;;;;;;10.86;61.23;99404.75;30621306;28;96699;-62
2023/03/23 05:44:45;;;;;;;5.57;3.70;;;;;;;11.13;60.79;99405.81;30611941;28;97033;-61
2023/03/23 05:59:45;;;;;;;6.03;3.87;;;;;;;11.41;59.92;99407.66;30615556;28;97292;-61
2023/03/23 06:14:47;;;;;;;7.38;3.28;;;;;;;11.75;58.34;99398.00;30614937;28;97421;-61
2023/03/23 06:29:48;;;;;;;4.90;3.10;;;;;;;12.38;57.46;99399.72;30611528;28;97876;-61
2023/03/23 06:44:48;;;;;;;3.83;2.33;;;;;;;13.10;55.96;99383.16;30609207;28;96718;-61
2023/03/23 06:59:49;;;;;;;6.60;3.10;;;;;;;13.54;54.22;99385.19;30611068;28;96655;-61
2023/03/23 07:14:50;;;;;;;3.15;2.13;;;;;;;14.56;51.63;99386.41;30612103;28;96721;-61
2023/03/23 07:29:50;;;;;;;9.02;2.85;;;;;;;15.05;50.08;99373.28;30610649;28;96816;-61
2023/03/23 07:44:51;;;;;;;8.35;3.40;;;;;;;15.10;49.87;99386.03;30624323;28;97037;-61
2023/03/23 07:59:51;;;;;;;3.97;2.53;;;;;;;16.30;48.49;99381.25;30626255;28;97348;-62
2023/03/23 08:14:53;;;;;;;4.65;2.47;;;;;;;15.94;47.65;99374.84;30628787;28;97904;-62
2023/03/23 08:29:54;;;;;;;5.50;2.87;;;;;;;16.99;46.47;99338.63;30626729;28;96675;-61
2023/03/23 08:44:54;;;;;;;6.30;3.10;;;;;;;18.94;42.64;99357.00;30622919;28;96734;-62
2023/03/23 08:59:59;;;;;;;5.57;2.38;;;;;;;19.85;38.10;99365.88;30622649;28;96581;-62
2023/03/23 09:15:01;;;;;;;3.53;2.00;;;;;;;18.56;38.74;99380.94;30621530;28;97297;-60
2023/03/23 09:30:01;;;;;;;2.90;1.80;;;;;;;18.60;39.20;99368.59;30620763;28;98224;-61
2023/03/23 09:45:32;;;;;;;6.18;2.00;;;;;;;21.90;35.23;99372.19;30620214;28;97311;-61
2023/03/23 10:00:37;;;;;;;10.43;5.43;;;;;;;20.31;35.01;99384.50;30610495;28;97239;-61
2023/03/23 10:15:40;;;;;;;6.47;2.93;;;;;;;21.40;35.80;99400.63;30613888;28;97012;-62
2023/03/23 10:30:44;;;;;;;3.70;1.10;;;;;;;26.60;26.85;99379.47;30605997;28;97747;-63
2023/03/23 10:45:51;;;;;;;5.33;1.30;;;;;;;20.46;33.38;99376.53;30653742;28;97527;-64
2023/03/23 11:00:52;;;;;;;3.23;0.80;;;;;;;20.52;35.38;99389.06;30602406;28;97219;-63
2023/03/23 11:15:52;;;;;;;1.43;0.90;;;;;;;21.56;32.30;99391.53;30602046;28;97574;-65
2023/03/23 11:30:55;;;;;;;1.60;0.90;;;;;;;23.35;31.79;99404.97;30600605;28;97251;-64
2023/03/23 11:46:04;;;;;;;3.20;0.90;;;;;;;21.34;33.13;99402.47;30598187;28;97316;-67
2023/03/23 12:01:53;;;;;;;3.90;1.70;;;;;;;20.15;34.93;99399.72;30599182;28;97231;-63
2023/03/23 12:17:16;;;;;;;3.10;1.40;;;;;;;18.93;37.37;99420.16;30613906;28;97048;-66
2023/03/23 12:32:22;;;;;;;1.90;1.10;;;;;;;18.50;38.44;99411.56;30627813;28;97027;-63
2023/03/23 12:47:36;;;;;;;2.70;1.00;;;;;;;18.61;38.48;99412.56;30600350;28;97383;-64
2023/03/23 13:02:58;;;;;;;4.57;1.40;;;;;;;18.20;39.32;99409.91;30616509;28;97437;-65
2023/03/23 13:17:58;;;;;;;;;;;;;;;18.06;40.16;99406.66;30620640;28;98264;-65
2023/03/23 13:33:05;;;;;;;5.47;2.00;;;;;;;18.20;40.45;99393.72;30619009;28;96876;-65
2023/03/23 13:48:20;;;;;;;4.40;1.90;;;;;;;18.46;39.83;99410.41;30617025;28;96998;-64
2023/03/23 14:03:31;;;;;;;12.70;3.50;;;;;;;17.84;40.92;99398.38;30613395;28;96767;-64
2023/03/23 14:18:37;;;;;;;3.60;2.10;;;;;;;17.92;41.83;99400.72;30614080;28;96824;-63
2023/03/23 14:33:41;;;;;;;4.67;2.07;;;;;;;18.04;42.17;99394.50;30610889;28;97677;-65
2023/03/23 14:48:41;;;;;;;3.17;2.07;;;;;;;19.08;41.61;99396.13;30611311;28;97791;-65
2023/03/23 15:03:46;;;;;;;3.22;2.20;;;;;;;18.40;42.37;99405.97;30606581;28;97416;-63
2023/03/23 15:18:54;;;;;;;8.73;2.00;;;;;;;18.11;43.75;99397.84;30600284;28;97809;-62
2023/03/23 15:33:59;;;;;;;4.77;2.17;;;;;;;17.52;45.09;99374.56;30599183;28;96752;-63
2023/03/23 15:49:00;;;;;;;8.60;2.97;;;;;;;17.40;45.54;99371.03;30596351;28;97390;-63
2023/03/23 16:04:15;;;;;;;4.00;2.65;;;;;;;17.14;46.16;99377.69;30613541;28;97345;-63
2023/03/23 16:19:16;;;;;;;4.30;2.63;;;;;;;17.04;46.77;99384.47;30677472;28;97478;-63
2023/03/23 16:34:17;;;;;;;7.20;3.07;;;;;;;16.44;48.25;99393.44;30662933;28;97531;-63
2023/03/23 16:49:17;;;;;;;8.05;3.20;;;;;;;16.06;49.22;99403.44;30619771;28;97188;-63
2023/03/23 17:04:18;;;;;;;5.18;2.90;;;;;;;15.78;50.64;99403.94;30612156;28;97325;-63
2023/03/23 17:19:18;;;;;;;8.68;2.88;;;;;;;15.66;50.23;99427.19;30610383;28;97413;-63
2023/03/23 17:34:18;;;;;;;5.43;2.80;;;;;;;15.50;50.49;99429.44;30618506;28;96737;-63
2023/03/23 17:49:19;;;;;;;6.55;2.67;;;;;;;15.26;51.40;99435.63;30618716;28;97297;-65
2023/03/23 18:04:21;;;;;;;5.93;2.83;;;;;;;15.13;52.15;99458.84;30617516;28;97487;-65
2023/03/23 18:19:21;;;;;;;9.97;4.10;;;;;;;15.04;52.53;99473.56;30614248;28;97458;-64
2023/03/23 18:34:22;;;;;;;6.95;3.47;;;;;;;14.95;52.68;99459.56;30615301;28;97073;-64
2023/03/23 18:49:22;;;;;;;7.78;4.13;;;;;;;14.83;52.89;99488.97;30609391;28;97235;-64
2023/03/23 19:04:23;;;;;;;9.30;4.97;;;;;;;14.75;53.15;99491.06;30603772;28;106583;-64
2023/03/23 19:19:23;;;;;;;13.38;5.18;;;;;;;14.69;53.41;99485.53;30603108;28;96738;-65
2023/03/23 19:34:26;;;;;;;8.50;5.13;;;;;;;14.60;53.96;99486.78;30599601;28;97560;-64
2023/03/23 19:49:26;;;;;;;9.00;5.18;;;;;;;14.44;54.21;99493.44;30565591;28;1137811;-63
2023/03/23 20:04:27;;;;;;;10.40;4.93;;;;;;;14.31;54.75;99497.00;30606194;28;96673;-62
2023/03/23 20:19:27;;;;;;;10.32;6.22;;;;;;;14.20;55.53;99516.41;30607221;28;108143;-63
2023/03/23 20:34:28;;;;;;;9.48;4.93;;;;;;;14.18;56.04;99524.66;30594987;28;105171;-64
2023/03/23 20:49:29;;;;;;;8.60;4.88;;;;;;;13.90;56.38;99527.63;30616732;28;96733;-62
2023/03/23 21:04:30;;;;;;;8.47;5.23;;;;;;;13.69;57.07;99501.88;30623354;28;96976;-64
2023/03/23 21:19:31;;;;;;;9.13;5.28;;;;;;;13.38;57.60;99524.72;30620620;28;100677;-63
2023/03/23 21:34:31;;;;;;;11.03;5.50;;;;;;;13.00;58.37;99538.66;30622067;28;97189;-64
2023/03/23 21:49:32;;;;;;;8.35;5.82;;;;;;;12.68;59.35;99535.66;30616747;28;114028;-62
2023/03/23 22:04:32;;;;;;;10.73;6.72;;;;;;;12.53;60.30;99523.28;30617215;28;108930;-61
2023/03/23 22:19:33;;;;;;;9.82;5.68;;;;;;;12.26;61.01;99516.16;30616517;28;97055;-62
2023/03/23 22:34:33;;;;;;;7.85;4.70;;;;;;;12.13;61.47;99532.94;30615876;28;97615;-62
2023/03/23 22:49:33;;;;;;;9.13;4.90;;;;;;;11.85;61.67;99515.06;30614996;28;97319;-62
2023/03/23 23:04:34;;;;;;;9.07;4.85;;;;;;;11.56;62.60;99511.56;30613813;28;97281;-61
2023/03/23 23:19:35;;;;;;;7.28;3.80;;;;;;;11.40;63.72;99510.03;30612039;28;97499;-61
2023/03/23 23:34:36;;;;;;;8.70;4.57;;;;;;;11.64;63.88;99508.75;30611707;28;97272;-62
2023/03/23 23:49:37;;;;;;;6.00;3.20;;;;;;;11.68;63.56;99490.53;30609342;28;96928;-62
